createdAt,value
2019-05-05T00:02:31.821Z,4.50
2019-05-05T00:05:11.414Z,4.50
2019-05-05T00:07:41.091Z,4.40
2019-05-05T00:10:15.103Z,4.40
2019-05-05T00:12:55.631Z,4.40
2019-05-05T00:15:38.407Z,4.30
2019-05-05T00:18:08.287Z,4.30
2019-05-05T00:20:37.963Z,4.30
2019-05-05T00:23:07.672Z,4.30
2019-05-05T00:25:37.539Z,4.20
2019-05-05T00:28:07.238Z,4.20
2019-05-05T00:30:36.934Z,4.20
2019-05-05T00:33:06.828Z,4.20
2019-05-05T00:35:36.573Z,4.20
2019-05-05T00:38:06.475Z,4.20
2019-05-05T00:40:36.286Z,4.10
2019-05-05T00:43:06.440Z,4.10
2019-05-05T00:45:37.235Z,4.10
2019-05-05T00:48:15.344Z,4.10
2019-05-05T00:50:45.020Z,4.00
2019-05-05T00:53:14.815Z,4.00
2019-05-05T00:55:44.581Z,4.00
2019-05-05T00:58:14.410Z,4.00
2019-05-05T01:00:56.607Z,4.00
2019-05-05T01:03:27.424Z,3.90
2019-05-05T01:06:04.426Z,4.00
2019-05-05T01:08:35.253Z,3.90
2019-05-05T01:11:05.294Z,3.90
2019-05-05T01:13:35.251Z,3.90
2019-05-05T01:16:06.330Z,3.90
2019-05-05T01:18:36.204Z,3.80
2019-05-05T01:21:06.131Z,3.80
2019-05-05T01:23:35.887Z,3.80
2019-05-05T01:26:05.961Z,3.70
2019-05-05T01:28:35.838Z,3.70
2019-05-05T01:31:10.199Z,3.70
2019-05-05T01:34:01.760Z,3.70
2019-05-05T01:36:31.549Z,3.60
2019-05-05T01:39:16.701Z,3.60
2019-05-05T01:41:50.011Z,3.60
2019-05-05T01:44:19.770Z,3.60
2019-05-05T01:46:49.481Z,3.50
2019-05-05T01:49:19.362Z,3.50
2019-05-05T01:51:49.046Z,3.50
2019-05-05T01:54:18.727Z,3.50
2019-05-05T01:56:48.871Z,3.50
2019-05-05T01:59:18.700Z,3.50
2019-05-05T02:01:48.476Z,3.50
2019-05-05T02:04:18.439Z,3.50
2019-05-05T02:06:48.111Z,3.50
2019-05-05T02:09:17.809Z,3.40
2019-05-05T02:11:47.592Z,3.50
2019-05-05T02:14:17.444Z,3.40
2019-05-05T02:16:47.118Z,3.40
2019-05-05T02:19:16.999Z,3.40
2019-05-05T02:21:47.120Z,3.40
2019-05-05T02:24:16.832Z,3.30
2019-05-05T02:26:46.835Z,3.30
2019-05-05T02:29:38.024Z,3.20
2019-05-05T02:32:25.668Z,3.20
2019-05-05T02:34:58.497Z,3.20
2019-05-05T02:37:28.533Z,3.10
2019-05-05T02:40:03.299Z,3.10
2019-05-05T02:42:30.368Z,3.10
2019-05-05T02:45:05.539Z,3.10
2019-05-05T02:48:15.366Z,3.10
2019-05-05T02:51:02.228Z,3.00
2019-05-05T02:53:36.968Z,3.00
2019-05-05T02:56:11.833Z,3.00
2019-05-05T02:58:44.395Z,2.90
2019-05-05T03:01:27.971Z,2.90
2019-05-05T03:04:00.473Z,2.90
2019-05-05T03:06:30.393Z,2.90
2019-05-05T03:09:01.498Z,2.80
2019-05-05T03:11:34.400Z,2.90
2019-05-05T03:14:08.783Z,2.80
2019-05-05T03:16:40.933Z,2.80
2019-05-05T03:19:11.537Z,2.80
2019-05-05T03:21:44.034Z,2.80
2019-05-05T03:24:14.360Z,2.90
2019-05-05T03:26:44.631Z,2.80
2019-05-05T03:29:18.931Z,2.80
2019-05-05T03:31:49.921Z,2.80
2019-05-05T03:34:23.802Z,2.80
2019-05-05T03:36:55.031Z,2.80
2019-05-05T03:39:27.068Z,2.80
2019-05-05T03:42:14.229Z,2.80
2019-05-05T03:44:49.196Z,2.80
2019-05-05T03:47:19.583Z,2.80
2019-05-05T03:49:49.735Z,2.80
2019-05-05T03:52:20.288Z,2.80
2019-05-05T03:54:50.222Z,2.80
2019-05-05T03:57:21.074Z,2.80
2019-05-05T03:59:51.038Z,2.80
2019-05-05T04:02:26.644Z,2.80
2019-05-05T04:04:57.904Z,2.80
2019-05-05T04:07:27.581Z,2.90
2019-05-05T04:09:57.540Z,2.90
2019-05-05T04:12:27.230Z,2.90
2019-05-05T04:14:57.450Z,2.90
2019-05-05T04:17:53.636Z,3.00
2019-05-05T04:20:44.204Z,3.00
2019-05-05T04:23:14.272Z,3.10
2019-05-05T04:25:44.069Z,3.20
2019-05-05T04:28:13.774Z,3.30
2019-05-05T04:30:44.493Z,3.40
2019-05-05T04:33:14.472Z,3.50
2019-05-05T04:35:44.569Z,3.50
2019-05-05T04:38:14.733Z,3.60
2019-05-05T04:40:44.516Z,3.80
2019-05-05T04:43:14.516Z,3.80
2019-05-05T04:45:44.240Z,4.00
2019-05-05T04:48:24.253Z,4.10
2019-05-05T04:51:13.750Z,4.30
2019-05-05T04:54:01.230Z,4.40
2019-05-05T04:56:31.315Z,4.50
2019-05-05T04:59:01.012Z,4.60
2019-05-05T05:01:30.727Z,4.70
2019-05-05T05:04:07.451Z,4.80
2019-05-05T05:06:41.000Z,4.90
2019-05-05T05:09:10.711Z,5.00
2019-05-05T05:11:40.382Z,5.10
2019-05-05T05:14:10.648Z,5.20
2019-05-05T05:16:40.314Z,5.40
2019-05-05T05:19:10.018Z,5.50
2019-05-05T05:21:39.916Z,5.60
2019-05-05T05:24:09.587Z,5.70
2019-05-05T05:26:39.344Z,5.90
2019-05-05T05:29:09.056Z,6.00
2019-05-05T05:31:38.774Z,6.10
2019-05-05T05:34:08.798Z,6.20
2019-05-05T05:36:38.541Z,6.20
2019-05-05T05:39:26.123Z,6.30
2019-05-05T05:41:55.787Z,6.40
2019-05-05T05:44:44.455Z,6.60
2019-05-05T05:47:22.111Z,6.60
2019-05-05T05:50:01.021Z,6.80
2019-05-05T05:52:30.730Z,6.90
2019-05-05T05:55:00.453Z,6.90
2019-05-05T05:57:30.114Z,7.10
2019-05-05T05:59:59.810Z,7.20
2019-05-05T06:02:29.470Z,7.30
2019-05-05T06:04:59.144Z,7.40
2019-05-05T06:07:28.837Z,7.40
2019-05-05T06:09:58.530Z,7.50
2019-05-05T06:12:28.206Z,7.50
2019-05-05T06:14:57.919Z,7.60
2019-05-05T06:17:27.920Z,7.70
2019-05-05T06:19:57.842Z,7.90
2019-05-05T06:22:31.245Z,7.90
2019-05-05T06:24:58.975Z,8.00
2019-05-05T06:27:28.661Z,8.10
2019-05-05T06:29:58.347Z,8.10
2019-05-05T06:32:28.072Z,8.20
2019-05-05T06:34:58.079Z,8.30
2019-05-05T06:37:27.786Z,8.40
2019-05-05T06:40:00.428Z,8.40
2019-05-05T06:42:43.680Z,8.50
2019-05-05T06:45:26.964Z,8.50
2019-05-05T06:47:56.664Z,8.60
2019-05-05T06:50:26.357Z,8.70
2019-05-05T06:52:56.100Z,8.90
2019-05-05T06:55:25.770Z,9.00
2019-05-05T06:57:55.527Z,9.00
2019-05-05T07:00:25.251Z,9.00
2019-05-05T07:02:54.925Z,9.00
2019-05-05T07:05:24.625Z,9.00
2019-05-05T07:07:54.387Z,9.20
2019-05-05T07:10:24.512Z,9.30
2019-05-05T07:12:54.445Z,9.40
2019-05-05T07:15:24.116Z,9.50
2019-05-05T07:17:53.813Z,9.50
2019-05-05T07:20:24.138Z,9.40
2019-05-05T07:23:01.403Z,9.40
2019-05-05T07:25:25.661Z,9.50
2019-05-05T07:27:55.450Z,9.50
2019-05-05T07:30:25.139Z,9.60
2019-05-05T07:32:54.866Z,9.70
2019-05-05T07:35:53.334Z,9.80
2019-05-05T07:38:13.793Z,10.00
2019-05-05T07:40:43.933Z,10.10
2019-05-05T07:43:14.642Z,10.30
2019-05-05T07:45:44.709Z,10.40
2019-05-05T07:48:14.497Z,10.60
2019-05-05T07:50:58.651Z,10.50
2019-05-05T07:53:17.976Z,10.50
2019-05-05T07:55:47.302Z,10.50
2019-05-05T07:58:16.989Z,10.60
2019-05-05T08:00:46.709Z,10.60
2019-05-05T08:03:16.395Z,10.60
2019-05-05T08:05:46.128Z,10.70
2019-05-05T08:08:15.858Z,10.60
2019-05-05T08:10:45.543Z,10.50
2019-05-05T08:13:15.270Z,10.30
2019-05-05T08:15:56.797Z,10.30
2019-05-05T08:18:38.385Z,10.30
2019-05-05T08:21:08.195Z,10.30
2019-05-05T08:23:44.702Z,10.40
2019-05-05T08:26:20.915Z,10.50
2019-05-05T08:28:54.882Z,10.70
2019-05-05T08:31:30.317Z,10.70
2019-05-05T08:34:00.003Z,10.80
2019-05-05T08:36:29.669Z,10.80
2019-05-05T08:38:59.404Z,10.80
2019-05-05T08:41:29.092Z,11.00
2019-05-05T08:43:58.749Z,11.20
2019-05-05T08:46:28.509Z,11.40
2019-05-05T08:48:58.199Z,11.70
2019-05-05T08:51:27.858Z,11.70
2019-05-05T08:53:57.587Z,11.60
2019-05-05T08:56:27.284Z,11.60
2019-05-05T08:58:56.972Z,11.90
2019-05-05T09:01:26.742Z,12.10
2019-05-05T09:03:56.503Z,12.20
2019-05-05T09:06:26.169Z,12.20
2019-05-05T09:08:55.902Z,12.40
2019-05-05T09:11:25.599Z,12.70
2019-05-05T09:13:55.356Z,13.00
2019-05-05T09:16:25.112Z,13.10
2019-05-05T09:19:01.409Z,13.00
2019-05-05T09:21:31.193Z,12.90
2019-05-05T09:24:17.096Z,12.70
2019-05-05T09:26:54.292Z,12.70
2019-05-05T09:29:27.165Z,12.70
2019-05-05T09:32:16.719Z,12.70
2019-05-05T09:34:46.711Z,12.60
2019-05-05T09:37:16.713Z,12.80
2019-05-05T09:39:46.842Z,12.70
2019-05-05T09:42:16.857Z,12.90
2019-05-05T09:44:46.967Z,13.20
2019-05-05T09:47:17.007Z,13.50
2019-05-05T09:49:46.990Z,13.80
2019-05-05T09:52:17.068Z,14.00
2019-05-05T09:54:47.199Z,14.10
2019-05-05T09:57:17.209Z,14.20
2019-05-05T09:59:47.190Z,14.40
2019-05-05T10:02:17.228Z,14.60
2019-05-05T10:04:47.132Z,15.00
2019-05-05T10:07:17.081Z,15.50
2019-05-05T10:09:47.068Z,15.80
2019-05-05T10:12:17.077Z,16.00
2019-05-05T10:14:46.997Z,16.30
2019-05-05T10:17:16.989Z,16.20
2019-05-05T10:19:46.926Z,15.60
2019-05-05T10:22:16.807Z,15.30
2019-05-05T10:24:55.244Z,15.30
2019-05-05T10:27:24.325Z,15.70
2019-05-05T10:29:54.795Z,16.40
2019-05-05T10:32:24.886Z,17.00
2019-05-05T10:35:04.457Z,17.40
2019-05-05T10:37:34.844Z,17.50
2019-05-05T10:40:05.684Z,17.30
2019-05-05T10:42:50.797Z,17.10
2019-05-05T10:45:24.493Z,17.10
2019-05-05T10:47:54.987Z,16.90
2019-05-05T10:50:25.517Z,16.50
2019-05-05T10:52:55.679Z,16.10
2019-05-05T10:55:25.749Z,15.70
2019-05-05T10:58:14.828Z,15.50
2019-05-05T11:00:49.606Z,15.40
2019-05-05T11:03:19.692Z,15.10
2019-05-05T11:05:49.766Z,15.10
2019-05-05T11:08:20.072Z,15.50
2019-05-05T11:10:50.042Z,16.20
2019-05-05T11:13:20.149Z,16.80
2019-05-05T11:15:50.375Z,17.70
2019-05-05T11:18:23.650Z,18.40
2019-05-05T11:20:54.887Z,19.30
2019-05-05T11:23:25.024Z,19.70
2019-05-05T11:25:55.262Z,20.20
2019-05-05T11:28:25.279Z,20.70
2019-05-05T11:30:55.401Z,20.80
2019-05-05T11:33:40.982Z,20.30
2019-05-05T11:36:30.274Z,20.00
2019-05-05T11:39:00.199Z,19.60
2019-05-05T11:41:30.414Z,19.30
2019-05-05T11:44:00.353Z,19.00
2019-05-05T11:46:30.757Z,18.70
2019-05-05T11:49:00.653Z,18.50
2019-05-05T11:51:30.689Z,18.50
2019-05-05T11:54:00.993Z,18.70
2019-05-05T11:56:30.976Z,20.00
2019-05-05T11:59:00.863Z,21.70
2019-05-05T12:01:30.890Z,22.40
2019-05-05T12:04:04.094Z,22.20
2019-05-05T12:06:34.140Z,22.20
2019-05-05T12:09:08.128Z,21.50
2019-05-05T12:11:38.083Z,20.60
2019-05-05T12:14:09.706Z,19.70
2019-05-05T12:16:39.873Z,19.40
2019-05-05T12:19:13.716Z,19.00
2019-05-05T12:21:44.275Z,18.90
2019-05-05T12:24:24.771Z,19.40
2019-05-05T12:27:16.117Z,19.50
2019-05-05T12:29:51.267Z,19.50
2019-05-05T12:32:21.284Z,19.30
2019-05-05T12:34:51.393Z,19.20
2019-05-05T12:37:23.563Z,19.00
2019-05-05T12:39:54.549Z,18.80
2019-05-05T12:42:24.854Z,19.10
2019-05-05T12:45:04.407Z,20.40
2019-05-05T12:47:52.096Z,22.80
2019-05-05T12:50:24.498Z,23.90
2019-05-05T12:52:54.894Z,23.50
2019-05-05T12:55:38.331Z,22.70
2019-05-05T12:57:57.261Z,21.80
2019-05-05T13:00:27.457Z,20.80
2019-05-05T13:02:57.328Z,19.80
2019-05-05T13:05:27.009Z,19.20
2019-05-05T13:07:56.811Z,18.70
2019-05-05T13:10:26.822Z,18.40
2019-05-05T13:12:56.509Z,18.20
2019-05-05T13:15:26.374Z,17.90
2019-05-05T13:18:15.476Z,17.40
2019-05-05T13:20:53.744Z,17.20
2019-05-05T13:23:31.447Z,16.90
2019-05-05T13:26:05.795Z,16.80
2019-05-05T13:28:35.607Z,17.10
2019-05-05T13:31:05.391Z,17.70
2019-05-05T13:33:37.227Z,18.10
2019-05-05T13:36:07.160Z,18.30
2019-05-05T13:38:36.826Z,19.50
2019-05-05T13:41:25.813Z,20.70
2019-05-05T13:43:57.144Z,21.50
2019-05-05T13:46:28.951Z,21.90
2019-05-05T13:49:35.946Z,22.20
2019-05-05T13:52:06.090Z,23.10
2019-05-05T13:54:35.783Z,24.30
2019-05-05T13:57:05.569Z,25.00
2019-05-05T13:59:35.232Z,25.60
2019-05-05T14:02:05.086Z,25.30
2019-05-05T14:04:35.054Z,25.10
2019-05-05T14:07:05.019Z,24.60
2019-05-05T14:09:34.803Z,24.00
2019-05-05T14:12:04.548Z,23.40
2019-05-05T14:14:34.312Z,23.20
2019-05-05T14:17:04.331Z,25.20
2019-05-05T14:19:34.281Z,27.90
2019-05-05T14:22:04.573Z,30.60
2019-05-05T14:24:47.807Z,32.30
2019-05-05T14:27:18.012Z,33.10
2019-05-05T14:29:56.655Z,32.10
2019-05-05T14:32:30.228Z,30.20
2019-05-05T14:35:14.269Z,28.60
2019-05-05T14:37:47.507Z,27.50
2019-05-05T14:40:17.867Z,27.40
2019-05-05T14:42:47.878Z,28.40
2019-05-05T14:45:17.961Z,30.00
2019-05-05T14:47:47.851Z,30.20
2019-05-05T14:50:18.310Z,29.10
2019-05-05T14:52:48.240Z,27.60
2019-05-05T14:55:18.227Z,26.10
2019-05-05T14:57:48.126Z,24.90
2019-05-05T15:00:21.122Z,23.80
2019-05-05T15:02:50.778Z,22.60
2019-05-05T15:05:41.295Z,21.50
2019-05-05T15:08:19.096Z,20.60
2019-05-05T15:11:06.832Z,19.80
2019-05-05T15:13:36.639Z,19.10
2019-05-05T15:16:09.906Z,18.60
2019-05-05T15:18:38.233Z,18.20
2019-05-05T15:21:07.893Z,17.80
2019-05-05T15:23:37.616Z,17.50
2019-05-05T15:26:08.111Z,17.10
2019-05-05T15:28:37.875Z,16.90
2019-05-05T15:31:07.626Z,16.70
2019-05-05T15:33:37.286Z,16.60
2019-05-05T15:36:07.011Z,16.40
2019-05-05T15:38:36.757Z,16.30
2019-05-05T15:41:06.756Z,16.20
2019-05-05T15:43:36.726Z,16.00
2019-05-05T15:46:06.569Z,15.80
2019-05-05T15:48:36.584Z,15.70
2019-05-05T15:51:06.344Z,15.60
2019-05-05T15:53:36.053Z,15.40
2019-05-05T15:56:05.784Z,15.30
2019-05-05T15:58:35.447Z,15.30
2019-05-05T16:01:05.476Z,15.30
2019-05-05T16:03:35.205Z,15.40
2019-05-05T16:06:04.885Z,15.60
2019-05-05T16:08:34.594Z,15.80
2019-05-05T16:11:04.286Z,16.00
2019-05-05T16:13:35.354Z,16.10
2019-05-05T16:16:16.503Z,16.10
2019-05-05T16:19:05.762Z,15.90
2019-05-05T16:21:38.375Z,15.80
2019-05-05T16:24:16.952Z,15.60
2019-05-05T16:26:46.622Z,15.40
2019-05-05T16:29:16.313Z,15.50
2019-05-05T16:31:46.030Z,15.50
2019-05-05T16:34:15.689Z,15.50
2019-05-05T16:36:45.601Z,15.50
2019-05-05T16:39:16.400Z,15.40
2019-05-05T16:41:46.257Z,15.30
2019-05-05T16:44:15.948Z,15.20
2019-05-05T16:46:45.784Z,15.20
2019-05-05T16:49:15.422Z,15.30
2019-05-05T16:51:51.785Z,15.50
2019-05-05T16:54:27.783Z,15.70
2019-05-05T16:56:57.542Z,15.80
2019-05-05T16:59:27.335Z,15.90
2019-05-05T17:01:57.057Z,16.00
2019-05-05T17:04:26.718Z,16.30
2019-05-05T17:09:24.086Z,16.40
2019-05-05T17:12:09.412Z,16.20
2019-05-05T17:14:49.769Z,16.00
2019-05-05T17:17:33.835Z,16.20
2019-05-05T17:20:06.867Z,17.00
2019-05-05T17:22:40.409Z,18.20
2019-05-05T17:25:11.093Z,19.30
2019-05-05T17:27:48.500Z,20.10
2019-05-05T17:30:13.155Z,20.10
2019-05-05T17:32:43.732Z,19.40
2019-05-05T17:35:14.364Z,18.50
2019-05-05T17:37:44.363Z,17.80
2019-05-05T17:40:33.653Z,17.70
2019-05-05T17:43:27.598Z,17.60
2019-05-05T17:46:19.211Z,17.00
2019-05-05T17:48:53.941Z,16.40
2019-05-05T17:51:31.506Z,15.70
2019-05-05T17:54:29.289Z,15.10
2019-05-05T17:56:59.290Z,14.70
2019-05-05T17:59:29.021Z,14.30
2019-05-05T18:01:58.690Z,14.00
2019-05-05T18:04:28.442Z,13.60
2019-05-05T18:07:05.009Z,13.30
2019-05-05T18:09:53.867Z,13.00
2019-05-05T18:12:33.835Z,12.80
2019-05-05T18:15:04.527Z,12.60
2019-05-05T18:17:34.225Z,12.40
2019-05-05T18:20:04.490Z,12.10
2019-05-05T18:22:34.379Z,12.00
2019-05-05T18:25:04.421Z,11.80
2019-05-05T18:27:34.496Z,11.60
2019-05-05T18:30:04.396Z,11.40
2019-05-05T18:32:34.287Z,11.20
2019-05-05T18:35:06.639Z,11.00
2019-05-05T18:37:35.527Z,10.80
2019-05-05T18:40:05.754Z,10.70
2019-05-05T18:42:35.737Z,10.50
2019-05-05T18:45:09.516Z,10.40
2019-05-05T18:47:39.262Z,10.20
2019-05-05T18:50:09.355Z,10.00
2019-05-05T18:52:39.088Z,9.90
2019-05-05T18:55:08.890Z,9.80
2019-05-05T18:57:38.647Z,9.70
2019-05-05T19:00:13.813Z,9.60
2019-05-05T19:02:50.716Z,9.50
2019-05-05T19:05:27.461Z,9.50
2019-05-05T19:08:25.101Z,9.40
2019-05-05T19:10:54.790Z,9.40
2019-05-05T19:13:24.671Z,9.40
2019-05-05T19:15:54.454Z,9.40
2019-05-05T19:18:24.579Z,9.40
2019-05-05T19:21:19.307Z,9.40
2019-05-05T19:23:49.034Z,9.40
2019-05-05T19:26:18.689Z,9.40
2019-05-05T19:28:50.179Z,9.30
2019-05-05T19:31:19.818Z,9.30
2019-05-05T19:33:49.509Z,9.30
2019-05-05T19:36:19.162Z,9.20
2019-05-05T19:38:48.893Z,9.20
2019-05-05T19:41:18.681Z,9.20
2019-05-05T19:43:55.045Z,9.10
2019-05-05T19:46:31.804Z,9.10
2019-05-05T19:49:17.455Z,9.10
2019-05-05T19:51:47.778Z,9.10
2019-05-05T19:54:17.475Z,9.00
2019-05-05T19:56:47.787Z,9.00
2019-05-05T19:59:17.513Z,9.00
2019-05-05T20:01:47.220Z,9.00
2019-05-05T20:04:16.998Z,9.10
2019-05-05T20:06:46.719Z,9.00
2019-05-05T20:09:16.399Z,9.00
2019-05-05T20:11:46.082Z,9.00
2019-05-05T20:14:15.763Z,9.00
2019-05-05T20:17:04.641Z,9.00
2019-05-05T20:19:43.991Z,8.90
2019-05-05T20:22:14.619Z,8.80
2019-05-05T20:24:44.609Z,8.70
2019-05-05T20:27:14.768Z,8.60
2019-05-05T20:29:44.714Z,8.50
2019-05-05T20:32:16.027Z,8.40
2019-05-05T20:34:54.393Z,8.30
2019-05-05T20:37:28.617Z,8.20
2019-05-05T20:39:59.956Z,8.10
2019-05-05T20:42:29.672Z,8.00
2019-05-05T20:44:59.369Z,7.90
2019-05-05T20:47:29.053Z,7.90
2019-05-05T20:49:58.746Z,7.80
2019-05-05T20:52:28.485Z,7.70
2019-05-05T20:54:58.172Z,7.70
2019-05-05T20:57:27.884Z,7.70
2019-05-05T21:02:45.315Z,7.70
2019-05-05T21:05:15.040Z,7.70
2019-05-05T21:07:44.797Z,7.70
2019-05-05T21:10:14.832Z,7.80
2019-05-05T21:12:45.560Z,7.90
2019-05-05T21:15:15.682Z,7.90
2019-05-05T21:17:45.348Z,8.00
2019-05-05T21:20:15.559Z,8.00
2019-05-05T21:22:54.116Z,8.10
2019-05-05T21:25:26.750Z,8.10
2019-05-05T21:27:56.522Z,8.10
2019-05-05T21:30:26.557Z,8.20
2019-05-05T21:32:56.344Z,8.20
2019-05-05T21:35:26.093Z,8.20
2019-05-05T21:37:55.792Z,8.30
2019-05-05T21:40:26.378Z,8.30
2019-05-05T21:42:56.144Z,8.30
2019-05-05T21:45:25.917Z,8.30
2019-05-05T21:47:55.649Z,8.40
2019-05-05T21:50:31.311Z,8.40
2019-05-05T21:53:40.007Z,8.50
2019-05-05T21:56:29.610Z,8.50
2019-05-05T21:58:59.954Z,8.50
2019-05-05T22:01:30.973Z,8.50
2019-05-05T22:04:00.730Z,8.60
2019-05-05T22:06:30.546Z,8.60
2019-05-05T22:09:00.258Z,8.60
2019-05-05T22:11:29.976Z,8.60
2019-05-05T22:13:59.735Z,8.60
2019-05-05T22:16:29.431Z,8.60
2019-05-05T22:18:59.198Z,8.60
2019-05-05T22:21:39.717Z,8.50
2019-05-05T22:24:15.729Z,8.50
2019-05-05T22:26:45.167Z,8.50
2019-05-05T22:29:17.069Z,8.40
2019-05-05T22:31:46.729Z,8.30
2019-05-05T22:34:16.495Z,8.20
2019-05-05T22:36:46.295Z,8.20
2019-05-05T22:39:17.028Z,8.10
2019-05-05T22:41:47.074Z,8.00
2019-05-05T22:44:17.125Z,7.90
2019-05-05T22:46:47.080Z,7.80
2019-05-05T22:49:16.772Z,7.70
2019-05-05T22:51:46.459Z,7.60
2019-05-05T22:54:16.440Z,7.50
2019-05-05T22:56:46.442Z,7.50
2019-05-05T22:59:16.147Z,7.40
2019-05-05T23:01:45.878Z,7.40
2019-05-05T23:04:28.594Z,7.30
2019-05-05T23:07:05.578Z,7.30
2019-05-05T23:09:35.356Z,7.20
2019-05-05T23:12:05.093Z,7.20
2019-05-05T23:14:35.108Z,7.20
2019-05-05T23:17:26.993Z,7.10
2019-05-05T23:20:16.349Z,7.10
2019-05-05T23:23:02.187Z,7.10
2019-05-05T23:25:36.585Z,7.00
2019-05-05T23:28:06.306Z,7.00
2019-05-05T23:30:41.436Z,6.90
2019-05-05T23:33:07.521Z,6.90
2019-05-05T23:35:37.401Z,6.80
2019-05-05T23:38:07.110Z,6.80
2019-05-05T23:40:37.169Z,6.80
2019-05-05T23:43:06.873Z,6.70
2019-05-05T23:45:36.617Z,6.60
2019-05-05T23:48:06.330Z,6.60
2019-05-05T23:50:36.133Z,6.50
2019-05-05T23:53:05.876Z,6.50
2019-05-05T23:55:35.544Z,6.50
2019-05-05T23:58:05.279Z,6.40
